Time;durP1;ratioP1;P1;durP2;ratioP2;P2;SDS_P1;SDS_P2;PMS_P1;PMS_P2;Temp;Humidity;BMP_temperature;BMP_pressure;BME280_temperature;BME280_humidity;BME280_pressure;Samples;Min_cycle;Max_cycle;Signal;HPM_P1;HPM_P2
2021/12/04 00:00:46;;;;;;;5.53;3.75;;;;;;;;;;4982189;28;20381;-72
2021/12/04 00:03:12;;;;;;;7.45;4.20;;;;;;;;;;4965112;28;20027;-73
2021/12/04 00:05:40;;;;;;;5.82;3.90;;;;;;;;;;4987184;28;20029;-73
2021/12/04 00:08:05;;;;;;;4.88;3.33;;;;;;;;;;4980567;28;20031;-73
2021/12/04 00:10:31;;;;;;;4.63;3.10;;;;;;;;;;4989105;28;20369;-73
2021/12/04 00:12:56;;;;;;;4.75;3.17;;;;;;;;;;4982591;28;20028;-71
2021/12/04 00:15:22;;;;;;;6.82;4.07;;;;;;;;;;4982570;28;20485;-71
2021/12/04 00:17:47;;;;;;;5.05;3.38;;;;;;;;;;4993465;28;20136;-72
2021/12/04 00:20:12;;;;;;;4.43;3.40;;;;;;;;;;4985470;28;20548;-74
2021/12/04 00:22:38;;;;;;;7.47;4.38;;;;;;;;;;4992481;28;20370;-73
2021/12/04 00:25:07;;;;;;;9.40;4.43;;;;;;;;;;4986539;28;20030;-73
2021/12/04 00:27:32;;;;;;;6.88;4.57;;;;;;;;;;4981210;28;20499;-72
2021/12/04 00:29:58;;;;;;;5.18;3.40;;;;;;;;;;4986090;28;20038;-73
2021/12/04 00:32:34;;;;;;;5.75;3.38;;;;;;;;;;4985528;28;20041;-73
2021/12/04 00:35:32;;;;;;;4.93;3.13;;;;;;;;;;4977873;28;20015;-73
2021/12/04 00:51:27;;;;;;;6.05;3.80;;;;;;;;;;4974071;28;20041;-73
2021/12/04 00:53:54;;;;;;;7.05;4.15;;;;;;;;;;4988356;28;20030;-73
2021/12/04 00:56:23;;;;;;;6.93;4.05;;;;;;;;;;4982406;28;20078;-73
2021/12/04 00:58:48;;;;;;;5.30;3.95;;;;;;;;;;4981988;28;20039;-72
2021/12/04 01:01:18;;;;;;;4.45;3.15;;;;;;;;;;4986838;28;20445;-72
2021/12/04 01:03:43;;;;;;;4.38;2.60;;;;;;;;;;4988139;28;20038;-72
2021/12/04 01:06:08;;;;;;;3.60;2.45;;;;;;;;;;4989812;28;20556;-73
2021/12/04 01:08:34;;;;;;;4.57;2.67;;;;;;;;;;4968644;28;20026;-72
2021/12/04 01:11:01;;;;;;;5.57;2.63;;;;;;;;;;5000572;28;20039;-72
2021/12/04 01:13:27;;;;;;;3.92;2.90;;;;;;;;;;4986674;28;20129;-73
2021/12/04 01:15:52;;;;;;;4.18;2.88;;;;;;;;;;4991059;28;20117;-73
2021/12/04 01:18:17;;;;;;;4.43;2.88;;;;;;;;;;4988159;28;20074;-72
2021/12/04 01:20:43;;;;;;;5.40;3.15;;;;;;;;;;4978112;28;20069;-72
2021/12/04 01:23:08;;;;;;;10.82;3.95;;;;;;;;;;4981881;28;20075;-73
2021/12/04 01:25:35;;;;;;;12.38;4.60;;;;;;;;;;4985134;28;20405;-72
2021/12/04 01:28:03;;;;;;;6.25;3.97;;;;;;;;;;4991451;28;20060;-73
2021/12/04 01:30:28;;;;;;;10.57;4.13;;;;;;;;;;4959662;28;20109;-73
2021/12/04 01:32:54;;;;;;;5.68;3.95;;;;;;;;;;4984830;28;20031;-73
2021/12/04 01:35:19;;;;;;;7.68;4.22;;;;;;;;;;4961640;28;20078;-72
2021/12/04 01:37:44;;;;;;;10.05;4.45;;;;;;;;;;4974637;28;20034;-72
2021/12/04 01:40:10;;;;;;;7.05;4.93;;;;;;;;;;4983423;28;20030;-73
2021/12/04 01:42:36;;;;;;;9.13;4.50;;;;;;;;;;4985552;28;20031;-73
2021/12/04 01:45:06;;;;;;;10.40;4.28;;;;;;;;;;4982899;28;20039;-73
2021/12/04 01:47:31;;;;;;;7.25;4.57;;;;;;;;;;4983729;28;20488;-73
2021/12/04 01:49:58;;;;;;;6.35;4.35;;;;;;;;;;4986976;28;20111;-73
2021/12/04 01:52:24;;;;;;;7.13;4.40;;;;;;;;;;4991245;28;20056;-73
2021/12/04 01:54:50;;;;;;;8.25;4.50;;;;;;;;;;4984226;28;20098;-73
2021/12/04 01:57:16;;;;;;;5.70;3.58;;;;;;;;;;4983180;28;20062;-73
2021/12/04 01:59:44;;;;;;;6.97;4.15;;;;;;;;;;4967082;28;20054;-73
2021/12/04 02:02:09;;;;;;;6.68;3.90;;;;;;;;;;4960913;28;20049;-73
2021/12/04 02:04:34;;;;;;;5.95;3.60;;;;;;;;;;4987570;28;20027;-73
2021/12/04 02:07:03;;;;;;;6.45;3.72;;;;;;;;;;4984569;28;20029;-73
2021/12/04 02:09:30;;;;;;;4.72;3.30;;;;;;;;;;4987020;28;20060;-73
2021/12/04 02:11:55;;;;;;;8.40;3.55;;;;;;;;;;4979589;28;20041;-73
2021/12/04 02:14:20;;;;;;;5.57;3.55;;;;;;;;;;4963232;28;20030;-73
2021/12/04 02:16:45;;;;;;;6.25;3.58;;;;;;;;;;4985192;28;20029;-72
2021/12/04 02:19:13;;;;;;;9.98;3.50;;;;;;;;;;4988623;28;20169;-72
2021/12/04 02:21:38;;;;;;;4.28;2.97;;;;;;;;;;4986782;28;20041;-72
2021/12/04 02:24:03;;;;;;;7.07;3.35;;;;;;;;;;4983235;28;20046;-73
2021/12/04 02:26:29;;;;;;;5.47;2.80;;;;;;;;;;4990611;28;20064;-73
2021/12/04 02:28:56;;;;;;;3.38;3.03;;;;;;;;;;4989692;28;20029;-72
2021/12/04 02:31:22;;;;;;;5.68;3.38;;;;;;;;;;4991624;28;20452;-73
2021/12/04 02:33:47;;;;;;;5.45;3.13;;;;;;;;;;4958701;28;20031;-73
2021/12/04 02:36:12;;;;;;;6.50;3.33;;;;;;;;;;4983772;28;20034;-72
2021/12/04 02:38:38;;;;;;;3.70;2.47;;;;;;;;;;4989805;28;20041;-73
2021/12/04 02:41:03;;;;;;;3.75;2.35;;;;;;;;;;4979441;28;20113;-73
2021/12/04 02:43:33;;;;;;;4.55;2.35;;;;;;;;;;4990781;28;20042;-72
2021/12/04 02:45:58;;;;;;;2.47;2.28;;;;;;;;;;4982010;28;20070;-73
2021/12/04 02:48:23;;;;;;;2.28;2.00;;;;;;;;;;4984952;28;20062;-73
2021/12/04 02:50:49;;;;;;;2.38;1.98;;;;;;;;;;4990798;28;20026;-72
2021/12/04 02:53:14;;;;;;;2.38;2.17;;;;;;;;;;4977241;28;20035;-72
2021/12/04 02:55:40;;;;;;;3.28;2.10;;;;;;;;;;4962860;28;20033;-73
2021/12/04 02:58:05;;;;;;;4.35;1.95;;;;;;;;;;4989623;28;20480;-72
2021/12/04 03:00:31;;;;;;;2.20;1.88;;;;;;;;;;4981414;28;20062;-73
2021/12/04 03:02:57;;;;;;;2.92;2.17;;;;;;;;;;4982429;28;20476;-73
2021/12/04 03:05:24;;;;;;;2.13;2.00;;;;;;;;;;4976400;28;20480;-73
2021/12/04 03:07:53;;;;;;;1.95;1.85;;;;;;;;;;4988384;28;20520;-73
2021/12/04 03:10:19;;;;;;;3.53;2.30;;;;;;;;;;4981275;28;20481;-72
2021/12/04 03:12:45;;;;;;;3.47;1.85;;;;;;;;;;4976220;28;20045;-72
2021/12/04 03:15:10;;;;;;;1.92;1.67;;;;;;;;;;4991090;28;20559;-72
2021/12/04 03:17:36;;;;;;;1.80;1.70;;;;;;;;;;4988152;28;20030;-73
2021/12/04 03:20:03;;;;;;;2.47;1.70;;;;;;;;;;4980233;28;20041;-73
2021/12/04 03:22:28;;;;;;;2.05;1.63;;;;;;;;;;4984578;28;20030;-73
2021/12/04 03:24:55;;;;;;;1.50;1.40;;;;;;;;;;4991444;28;20504;-73
2021/12/04 03:27:21;;;;;;;1.52;1.42;;;;;;;;;;4989348;28;20092;-74
2021/12/04 03:30:08;;;;;;;2.25;1.50;;;;;;;;;;4988991;28;20532;-73
2021/12/04 03:40:58;;;;;;;1.55;1.15;;;;;;;;;;4981176;28;20030;-73
2021/12/04 03:43:24;;;;;;;1.77;1.20;;;;;;;;;;4985122;28;20037;-74
2021/12/04 03:45:55;;;;;;;1.35;1.20;;;;;;;;;;4993451;28;20026;-73
2021/12/04 03:49:06;;;;;;;1.15;1.05;;;;;;;;;;4995205;28;20058;-73
2021/12/04 03:51:07;;;;;;;1.27;1.17;;;;;;;;;;4975590;28;20076;-73
2021/12/04 03:53:32;;;;;;;1.38;1.20;;;;;;;;;;4977363;28;20053;-73
2021/12/04 03:55:57;;;;;;;1.05;1.05;;;;;;;;;;4974774;28;20052;-73
2021/12/04 03:58:23;;;;;;;1.35;1.25;;;;;;;;;;4982228;28;20500;-73
2021/12/04 04:00:48;;;;;;;2.47;1.02;;;;;;;;;;4988927;28;20066;-73
2021/12/04 04:03:14;;;;;;;1.85;1.15;;;;;;;;;;4976995;28;20038;-73
2021/12/04 04:05:39;;;;;;;1.25;1.15;;;;;;;;;;4969627;28;20115;-74
2021/12/04 04:08:04;;;;;;;1.38;1.10;;;;;;;;;;4986876;28;20023;-73
2021/12/04 04:10:30;;;;;;;0.90;0.90;;;;;;;;;;4987549;28;20460;-74
2021/12/04 04:12:55;;;;;;;1.13;1.00;;;;;;;;;;4993553;28;20030;-74
2021/12/04 04:15:21;;;;;;;0.90;0.90;;;;;;;;;;4994477;28;20057;-74
2021/12/04 04:17:47;;;;;;;1.20;0.80;;;;;;;;;;4972394;28;20035;-74
2021/12/04 04:20:18;;;;;;;1.27;1.05;;;;;;;;;;4973565;28;20026;-72
2021/12/04 04:22:43;;;;;;;0.55;0.55;;;;;;;;;;4985895;28;20207;-73
2021/12/04 04:25:10;;;;;;;0.63;0.63;;;;;;;;;;4984942;28;20508;-73
2021/12/04 04:27:36;;;;;;;1.25;1.02;;;;;;;;;;4992430;28;20030;-74
2021/12/04 04:30:03;;;;;;;0.82;0.82;;;;;;;;;;4986064;28;20042;-74
2021/12/04 04:32:29;;;;;;;1.45;0.90;;;;;;;;;;4972281;28;20057;-74
2021/12/04 04:34:56;;;;;;;0.80;0.80;;;;;;;;;;4993038;28;20026;-74
2021/12/04 04:37:32;;;;;;;0.90;0.90;;;;;;;;;;4988814;28;20041;-75
2021/12/04 05:12:48;;;;;;;1.17;1.08;;;;;;;;;;4981223;28;20166;-75
2021/12/04 05:15:33;;;;;;;1.30;1.20;;;;;;;;;;4991111;28;20070;-75
2021/12/04 05:18:14;;;;;;;0.98;0.98;;;;;;;;;;4991781;28;20030;-75
2021/12/04 05:20:40;;;;;;;1.10;0.90;;;;;;;;;;4974949;28;20030;-75
2021/12/04 05:23:07;;;;;;;1.58;0.80;;;;;;;;;;4984372;28;20018;-75
2021/12/04 05:25:35;;;;;;;0.98;0.98;;;;;;;;;;4981238;28;20022;-75
2021/12/04 05:28:01;;;;;;;1.00;1.00;;;;;;;;;;4966120;28;20057;-73
2021/12/04 05:30:26;;;;;;;2.83;1.15;;;;;;;;;;4991574;28;20508;-76
2021/12/04 05:32:52;;;;;;;1.17;1.10;;;;;;;;;;4990575;28;20535;-76
2021/12/04 05:35:17;;;;;;;1.42;1.10;;;;;;;;;;4987506;28;20026;-76
2021/12/04 05:37:42;;;;;;;1.20;1.10;;;;;;;;;;4984946;28;20038;-76
2021/12/04 05:40:10;;;;;;;1.50;1.40;;;;;;;;;;4981012;28;20110;-75
2021/12/04 05:42:36;;;;;;;1.33;1.20;;;;;;;;;;4988687;28;20038;-74
2021/12/04 05:45:01;;;;;;;1.73;1.30;;;;;;;;;;4982915;28;20414;-75
2021/12/04 05:47:37;;;;;;;1.20;1.08;;;;;;;;;;4994614;28;20100;-75
2021/12/04 05:55:17;;;;;;;1.27;1.05;;;;;;;;;;4989273;28;20019;-76
2021/12/04 05:57:42;;;;;;;1.00;1.00;;;;;;;;;;4985221;28;20029;-76
2021/12/04 06:00:13;;;;;;;3.42;1.00;;;;;;;;;;4986763;28;20482;-75
2021/12/04 06:02:39;;;;;;;0.95;0.95;;;;;;;;;;4991512;28;20543;-75
2021/12/04 06:05:04;;;;;;;1.30;1.20;;;;;;;;;;4980469;28;20022;-75
2021/12/04 06:07:30;;;;;;;1.30;1.23;;;;;;;;;;4994394;28;20423;-75
2021/12/04 06:09:56;;;;;;;1.00;1.00;;;;;;;;;;4985357;28;20125;-73
2021/12/04 06:12:21;;;;;;;1.33;1.10;;;;;;;;;;4986060;28;20046;-75
2021/12/04 06:14:49;;;;;;;1.15;1.10;;;;;;;;;;4980926;28;20105;-76
2021/12/04 06:17:14;;;;;;;3.33;1.13;;;;;;;;;;4984062;28;20030;-75
2021/12/04 06:22:40;;;;;;;0.90;0.90;;;;;;;;;;4988093;28;20535;-75
2021/12/04 06:25:13;;;;;;;1.00;1.00;;;;;;;;;;4978166;28;20476;-75
2021/12/04 06:27:38;;;;;;;1.25;1.15;;;;;;;;;;4984340;28;20034;-71
2021/12/04 06:30:04;;;;;;;1.50;1.00;;;;;;;;;;4985756;28;20512;-71
2021/12/04 06:32:30;;;;;;;1.17;1.08;;;;;;;;;;4990560;28;20105;-71
2021/12/04 06:34:55;;;;;;;3.83;1.50;;;;;;;;;;4987508;28;20549;-71
2021/12/04 06:37:20;;;;;;;1.42;1.33;;;;;;;;;;4990231;28;20152;-71
2021/12/04 06:39:46;;;;;;;2.00;1.30;;;;;;;;;;4992561;28;20117;-71
2021/12/04 06:42:11;;;;;;;1.10;1.10;;;;;;;;;;4986124;28;20122;-71
2021/12/04 06:44:36;;;;;;;1.55;1.13;;;;;;;;;;4987836;28;20105;-71
2021/12/04 06:47:02;;;;;;;1.92;1.13;;;;;;;;;;4987093;28;20117;-71
2021/12/04 06:49:32;;;;;;;1.00;1.00;;;;;;;;;;4985760;28;20100;-71
2021/12/04 06:52:01;;;;;;;1.17;1.08;;;;;;;;;;4979589;28;20023;-71
2021/12/04 06:54:32;;;;;;;1.35;1.08;;;;;;;;;;4980390;28;20584;-69
2021/12/04 06:56:57;;;;;;;1.10;1.00;;;;;;;;;;4986320;28;20035;-71
2021/12/04 06:59:27;;;;;;;1.00;1.00;;;;;;;;;;4988482;28;20030;-69
2021/12/04 07:01:52;;;;;;;0.75;0.75;;;;;;;;;;4984606;28;20133;-70
2021/12/04 07:04:19;;;;;;;0.95;0.95;;;;;;;;;;4988373;28;20026;-70
2021/12/04 07:06:46;;;;;;;0.90;0.90;;;;;;;;;;4985870;28;20033;-70
2021/12/04 07:09:12;;;;;;;1.15;1.05;;;;;;;;;;4992981;28;20481;-70
2021/12/04 07:11:37;;;;;;;1.45;1.10;;;;;;;;;;4988075;28;20082;-70
2021/12/04 07:14:02;;;;;;;0.93;0.93;;;;;;;;;;4978524;28;21220;-70
2021/12/04 07:16:28;;;;;;;1.20;1.02;;;;;;;;;;4987666;28;20404;-70
2021/12/04 07:18:53;;;;;;;3.60;0.90;;;;;;;;;;4992216;28;20076;-71
2021/12/04 07:21:19;;;;;;;0.98;0.90;;;;;;;;;;4986945;28;20039;-70
2021/12/04 07:23:44;;;;;;;0.82;0.82;;;;;;;;;;4987580;28;20034;-70
2021/12/04 07:26:09;;;;;;;0.77;0.77;;;;;;;;;;4992861;28;20033;-70
2021/12/04 07:28:35;;;;;;;1.08;1.08;;;;;;;;;;4990274;28;20495;-69
2021/12/04 07:31:00;;;;;;;0.80;0.80;;;;;;;;;;4989764;28;20117;-70
2021/12/04 07:33:26;;;;;;;1.05;0.68;;;;;;;;;;4992434;28;20146;-69
2021/12/04 07:35:51;;;;;;;0.77;0.77;;;;;;;;;;4989516;28;20157;-69
2021/12/04 07:38:16;;;;;;;1.63;0.90;;;;;;;;;;4991612;28;20033;-69
2021/12/04 07:40:43;;;;;;;0.68;0.68;;;;;;;;;;4992234;28;20046;-69
2021/12/04 07:43:08;;;;;;;1.30;0.80;;;;;;;;;;4992341;28;20022;-70
2021/12/04 07:45:33;;;;;;;0.70;0.70;;;;;;;;;;4986859;28;20026;-70
2021/12/04 07:47:59;;;;;;;0.90;0.90;;;;;;;;;;4990312;28;20073;-70
2021/12/04 07:50:24;;;;;;;0.82;0.77;;;;;;;;;;4989215;28;20014;-69
2021/12/04 07:52:50;;;;;;;1.20;0.80;;;;;;;;;;4992469;28;20026;-70
2021/12/04 07:55:15;;;;;;;1.20;0.70;;;;;;;;;;4989841;28;20562;-69
2021/12/04 07:57:40;;;;;;;0.70;0.70;;;;;;;;;;4988652;28;20038;-69
2021/12/04 08:00:09;;;;;;;0.80;0.80;;;;;;;;;;4991189;28;20026;-69
2021/12/04 08:02:34;;;;;;;0.68;0.68;;;;;;;;;;4981104;28;20062;-69
2021/12/04 08:04:59;;;;;;;0.70;0.70;;;;;;;;;;4991769;28;20389;-69
2021/12/04 08:07:25;;;;;;;0.80;0.80;;;;;;;;;;4992417;28;20061;-69
2021/12/04 08:09:50;;;;;;;0.80;0.80;;;;;;;;;;4989544;28;20031;-69
2021/12/04 08:12:15;;;;;;;2.38;0.90;;;;;;;;;;4989643;28;20030;-69
2021/12/04 08:14:41;;;;;;;0.80;0.80;;;;;;;;;;4982051;28;20098;-68
2021/12/04 08:17:06;;;;;;;0.70;0.70;;;;;;;;;;4992422;28;20454;-68
2021/12/04 08:19:32;;;;;;;1.42;0.90;;;;;;;;;;4986241;28;20491;-69
2021/12/04 08:21:57;;;;;;;0.80;0.80;;;;;;;;;;4990723;28;20022;-69
2021/12/04 08:24:23;;;;;;;0.90;0.90;;;;;;;;;;4994474;28;20401;-69
2021/12/04 08:26:48;;;;;;;0.68;0.68;;;;;;;;;;4989899;28;20454;-70
2021/12/04 08:29:14;;;;;;;0.90;0.90;;;;;;;;;;4984292;28;20416;-69
2021/12/04 08:31:39;;;;;;;0.65;0.65;;;;;;;;;;4988686;28;20038;-70
2021/12/04 08:34:04;;;;;;;0.60;0.60;;;;;;;;;;4983884;28;20511;-69
2021/12/04 08:36:32;;;;;;;0.60;0.60;;;;;;;;;;4988113;28;20042;-68
2021/12/04 08:38:58;;;;;;;0.60;0.60;;;;;;;;;;4988225;28;20038;-69
2021/12/04 08:41:23;;;;;;;0.80;0.80;;;;;;;;;;4985253;28;20026;-69
2021/12/04 08:43:48;;;;;;;0.75;0.75;;;;;;;;;;4991990;28;20030;-69
2021/12/04 08:46:14;;;;;;;0.80;0.70;;;;;;;;;;4991280;28;20060;-69
2021/12/04 08:48:40;;;;;;;0.70;0.70;;;;;;;;;;4993417;28;20527;-69
2021/12/04 08:51:05;;;;;;;0.95;0.80;;;;;;;;;;4989269;28;20059;-69
2021/12/04 08:53:31;;;;;;;0.60;0.60;;;;;;;;;;4981657;28;20027;-69
2021/12/04 08:55:56;;;;;;;2.30;0.80;;;;;;;;;;4988783;28;20026;-69
2021/12/04 08:58:21;;;;;;;0.70;0.70;;;;;;;;;;4986001;28;20481;-70
2021/12/04 09:00:49;;;;;;;0.73;0.73;;;;;;;;;;4981728;28;20114;-70
2021/12/04 09:03:17;;;;;;;0.68;0.68;;;;;;;;;;4977860;28;20433;-70
2021/12/04 09:05:42;;;;;;;0.70;0.70;;;;;;;;;;4992072;28;20073;-69
2021/12/04 09:08:08;;;;;;;0.70;0.70;;;;;;;;;;4992697;28;20031;-70
2021/12/04 09:10:33;;;;;;;0.68;0.68;;;;;;;;;;4991525;28;20045;-70
2021/12/04 09:12:58;;;;;;;1.00;0.70;;;;;;;;;;4990488;28;20038;-69
2021/12/04 09:15:26;;;;;;;0.52;0.52;;;;;;;;;;4988874;28;20081;-69
2021/12/04 09:17:52;;;;;;;0.60;0.60;;;;;;;;;;4985701;28;20030;-69
2021/12/04 09:20:17;;;;;;;1.02;0.52;;;;;;;;;;4979882;28;20034;-69
2021/12/04 09:22:44;;;;;;;0.60;0.60;;;;;;;;;;4989371;28;20022;-69
2021/12/04 09:25:13;;;;;;;0.50;0.50;;;;;;;;;;4993048;28;20030;-68
2021/12/04 09:36:11;;;;;;;;;;;;;;;;;;4992752;28;20102;-68
2021/12/04 10:20:03;;;;;;;1.45;0.75;;;;;;;;;;4978427;28;20372;-70
2021/12/04 10:33:48;;;;;;;0.52;0.52;;;;;;;;;;4984962;28;20286;-70
2021/12/04 10:36:24;;;;;;;0.80;0.70;;;;;;;;;;4981770;28;20041;-70
2021/12/04 10:38:50;;;;;;;1.10;0.43;;;;;;;;;;4980311;28;20555;-70
2021/12/04 10:41:16;;;;;;;0.50;0.50;;;;;;;;;;4985032;28;20121;-70
2021/12/04 10:43:41;;;;;;;0.50;0.50;;;;;;;;;;4980519;28;20121;-70
2021/12/04 10:46:14;;;;;;;0.70;0.70;;;;;;;;;;4982887;28;20025;-70
2021/12/04 10:48:48;;;;;;;0.40;0.40;;;;;;;;;;4981533;28;20030;-70
2021/12/04 10:53:55;;;;;;;0.57;0.57;;;;;;;;;;4986589;28;20034;-69
2021/12/04 11:36:46;;;;;;;2.55;0.88;;;;;;;;;;4988867;28;20477;-69
2021/12/04 11:39:27;;;;;;;0.80;0.70;;;;;;;;;;4989171;28;20026;-70
2021/12/04 11:42:18;;;;;;;0.60;0.50;;;;;;;;;;4988760;28;20022;-69
2021/12/04 11:45:47;;;;;;;0.45;0.45;;;;;;;;;;4986531;28;20481;-69
2021/12/04 11:47:40;;;;;;;0.60;0.60;;;;;;;;;;4974813;28;20072;-69
2021/12/04 11:50:24;;;;;;;0.63;0.60;;;;;;;;;;4974946;28;20532;-71
2021/12/04 11:52:57;;;;;;;0.50;0.50;;;;;;;;;;4980082;28;20058;-69
2021/12/04 11:55:24;;;;;;;0.60;0.60;;;;;;;;;;4969846;28;20646;-69
2021/12/04 11:57:49;;;;;;;0.40;0.40;;;;;;;;;;4986384;28;20038;-69
2021/12/04 12:00:25;;;;;;;0.85;0.60;;;;;;;;;;4987554;28;20038;-69
2021/12/04 12:03:12;;;;;;;0.55;0.55;;;;;;;;;;4983589;28;20027;-69
2021/12/04 12:05:44;;;;;;;0.65;0.47;;;;;;;;;;4964831;28;20039;-69
2021/12/04 12:08:37;;;;;;;0.60;0.50;;;;;;;;;;4984568;28;20408;-70
2021/12/04 12:11:27;;;;;;;0.57;0.43;;;;;;;;;;4992319;28;20022;-70
2021/12/04 12:13:58;;;;;;;0.30;0.30;;;;;;;;;;4992830;28;20420;-70
2021/12/04 12:16:26;;;;;;;0.32;0.32;;;;;;;;;;4984401;28;20061;-69
2021/12/04 12:18:55;;;;;;;0.50;0.50;;;;;;;;;;4991763;28;20022;-70
2021/12/04 12:21:26;;;;;;;1.00;0.40;;;;;;;;;;4972074;28;20035;-69
2021/12/04 12:24:17;;;;;;;0.95;0.50;;;;;;;;;;4973388;28;20065;-70
2021/12/04 12:33:07;;;;;;;0.32;0.32;;;;;;;;;;4986893;28;20049;-70
2021/12/04 12:38:47;;;;;;;0.50;0.50;;;;;;;;;;4985704;28;20077;-70
2021/12/04 12:41:26;;;;;;;0.90;0.40;;;;;;;;;;4981035;28;20031;-70
2021/12/04 12:44:04;;;;;;;0.43;0.43;;;;;;;;;;4990654;28;20030;-70
2021/12/04 12:46:33;;;;;;;0.55;0.55;;;;;;;;;;4981396;28;20054;-70
2021/12/04 12:48:58;;;;;;;0.40;0.40;;;;;;;;;;4982886;28;20030;-70
2021/12/04 12:51:32;;;;;;;0.50;0.50;;;;;;;;;;4991792;28;20109;-70
2021/12/04 12:53:58;;;;;;;;;;;;;;;;;;4991805;28;20534;-70
2021/12/04 12:56:26;;;;;;;0.40;0.40;;;;;;;;;;4991492;28;19963;-70
2021/12/04 12:58:57;;;;;;;0.50;0.50;;;;;;;;;;4991681;28;20033;-69
2021/12/04 13:13:44;;;;;;;1.17;0.40;;;;;;;;;;4986222;28;20045;-70
2021/12/04 13:16:17;;;;;;;0.47;0.40;;;;;;;;;;4982737;28;20583;-70
2021/12/04 13:18:45;;;;;;;0.45;0.45;;;;;;;;;;4989128;28;20388;-69
2021/12/04 13:21:10;;;;;;;0.40;0.40;;;;;;;;;;4991082;28;20022;-69
2021/12/04 13:23:36;;;;;;;0.40;0.40;;;;;;;;;;4984553;28;20534;-70
2021/12/04 13:26:08;;;;;;;0.50;0.50;;;;;;;;;;4976565;28;20015;-69
2021/12/04 13:28:35;;;;;;;0.40;0.40;;;;;;;;;;4991104;28;20030;-69
2021/12/04 13:31:01;;;;;;;0.40;0.40;;;;;;;;;;4989986;28;20070;-69
2021/12/04 13:33:30;;;;;;;0.40;0.40;;;;;;;;;;4983850;28;20058;-69
2021/12/04 13:35:56;;;;;;;0.50;0.50;;;;;;;;;;4970901;28;20302;-69
2021/12/04 13:38:22;;;;;;;0.75;0.47;;;;;;;;;;4972398;28;20490;-69
2021/12/04 13:40:51;;;;;;;0.40;0.40;;;;;;;;;;4979040;28;20374;-69
2021/12/04 13:43:17;;;;;;;0.40;0.40;;;;;;;;;;4991051;28;20416;-69
2021/12/04 13:45:43;;;;;;;0.55;0.52;;;;;;;;;;4974076;28;20026;-69
2021/12/04 13:48:08;;;;;;;0.30;0.30;;;;;;;;;;4990613;28;20018;-69
2021/12/04 13:53:07;;;;;;;0.30;0.30;;;;;;;;;;4986099;28;20057;-69
2021/12/04 13:55:37;;;;;;;0.60;0.60;;;;;;;;;;4990694;28;20030;-69
2021/12/04 13:58:03;;;;;;;0.40;0.40;;;;;;;;;;4990318;28;20126;-69
2021/12/04 14:00:28;;;;;;;0.68;0.40;;;;;;;;;;4989101;28;20038;-69
2021/12/04 14:02:53;;;;;;;0.40;0.40;;;;;;;;;;4990635;28;20053;-70
2021/12/04 14:05:21;;;;;;;0.93;0.60;;;;;;;;;;4990147;28;20038;-70
2021/12/04 14:07:52;;;;;;;0.43;0.43;;;;;;;;;;4981011;28;20328;-69
2021/12/04 14:10:19;;;;;;;0.90;0.60;;;;;;;;;;4983702;28;20042;-69
2021/12/04 14:12:45;;;;;;;0.45;0.45;;;;;;;;;;4991404;28;20025;-69
2021/12/04 14:15:11;;;;;;;0.40;0.40;;;;;;;;;;4991681;28;20023;-69
2021/12/04 14:17:37;;;;;;;0.50;0.50;;;;;;;;;;4990769;28;20026;-69
2021/12/04 14:20:04;;;;;;;0.50;0.50;;;;;;;;;;4983587;28;20088;-69
2021/12/04 14:22:30;;;;;;;1.27;0.70;;;;;;;;;;4991192;28;20038;-70
2021/12/04 14:24:59;;;;;;;0.60;0.60;;;;;;;;;;4978471;28;20057;-70
2021/12/04 14:27:26;;;;;;;0.60;0.60;;;;;;;;;;4972737;28;20108;-70
2021/12/04 14:29:55;;;;;;;1.42;0.80;;;;;;;;;;4955328;28;20022;-70
2021/12/04 14:32:22;;;;;;;0.63;0.63;;;;;;;;;;4975589;28;20045;-70
2021/12/04 14:34:47;;;;;;;0.70;0.70;;;;;;;;;;4981590;28;20058;-70
2021/12/04 14:37:14;;;;;;;0.60;0.60;;;;;;;;;;4986288;28;20108;-70
2021/12/04 14:39:47;;;;;;;0.68;0.68;;;;;;;;;;4972181;28;20058;-70
2021/12/04 14:42:18;;;;;;;0.60;0.60;;;;;;;;;;4987319;28;20034;-70
2021/12/04 14:45:07;;;;;;;0.60;0.60;;;;;;;;;;4985381;28;20026;-69
2021/12/04 14:47:37;;;;;;;0.57;0.55;;;;;;;;;;4983584;28;20034;-70
2021/12/04 14:50:07;;;;;;;1.85;0.60;;;;;;;;;;4983009;28;20026;-69
2021/12/04 14:52:32;;;;;;;1.60;1.50;;;;;;;;;;4987187;28;20034;-69
2021/12/04 14:54:58;;;;;;;0.60;0.60;;;;;;;;;;4987054;28;20029;-70
2021/12/04 14:57:25;;;;;;;1.00;1.00;;;;;;;;;;4989378;28;20124;-69
2021/12/04 15:00:01;;;;;;;1.20;1.10;;;;;;;;;;4987816;28;20030;-70
2021/12/04 15:02:26;;;;;;;1.40;1.30;;;;;;;;;;4983594;28;20117;-71
2021/12/04 15:04:52;;;;;;;2.30;2.10;;;;;;;;;;4983860;28;20146;-71
2021/12/04 15:07:23;;;;;;;1.40;1.30;;;;;;;;;;4986907;28;20142;-70
2021/12/04 15:09:48;;;;;;;1.52;1.30;;;;;;;;;;4982917;28;20492;-70
2021/12/04 15:12:25;;;;;;;4.82;3.80;;;;;;;;;;4983532;28;20069;-69
2021/12/04 15:14:54;;;;;;;2.38;2.17;;;;;;;;;;4987830;28;20026;-71
2021/12/04 15:17:20;;;;;;;8.52;7.47;;;;;;;;;;4986652;28;20393;-71
2021/12/04 15:19:46;;;;;;;0.98;0.98;;;;;;;;;;4987376;28;20045;-71
2021/12/04 15:22:17;;;;;;;0.70;0.70;;;;;;;;;;4987474;28;20034;-70
2021/12/04 15:24:43;;;;;;;0.70;0.70;;;;;;;;;;4985849;28;20473;-71
2021/12/04 15:27:16;;;;;;;0.60;0.60;;;;;;;;;;4987355;28;20121;-71
2021/12/04 15:29:47;;;;;;;0.57;0.57;;;;;;;;;;4988361;28;20552;-71
2021/12/04 15:32:23;;;;;;;0.90;0.90;;;;;;;;;;4986137;28;20537;-70
2021/12/04 15:34:57;;;;;;;0.70;0.70;;;;;;;;;;4984726;28;20022;-71
2021/12/04 15:37:48;;;;;;;1.20;1.20;;;;;;;;;;4988614;28;20030;-71
2021/12/04 15:40:55;;;;;;;0.90;0.90;;;;;;;;;;4991413;28;20034;-72
2021/12/04 15:46:09;;;;;;;0.80;0.80;;;;;;;;;;4991062;28;20085;-73
2021/12/04 15:48:56;;;;;;;0.80;0.80;;;;;;;;;;4975996;28;20109;-73
2021/12/04 15:54:19;;;;;;;3.90;0.65;;;;;;;;;;4982580;28;20061;-73
2021/12/04 15:56:47;;;;;;;1.10;1.00;;;;;;;;;;4974131;28;20080;-72
2021/12/04 15:59:14;;;;;;;0.50;0.50;;;;;;;;;;4996078;28;20022;-72
2021/12/04 16:01:40;;;;;;;0.50;0.50;;;;;;;;;;4990105;28;20539;-73
2021/12/04 16:04:05;;;;;;;0.40;0.40;;;;;;;;;;4991791;28;20026;-72
2021/12/04 16:06:40;;;;;;;0.45;0.45;;;;;;;;;;4993161;28;20062;-72
2021/12/04 16:09:05;;;;;;;3.17;2.88;;;;;;;;;;4976823;28;20049;-72
2021/12/04 16:11:35;;;;;;;0.50;0.50;;;;;;;;;;4994021;28;20034;-72
2021/12/04 16:14:04;;;;;;;0.50;0.50;;;;;;;;;;4992676;28;20056;-72
2021/12/04 16:16:32;;;;;;;0.45;0.45;;;;;;;;;;4992315;28;20120;-74
2021/12/04 16:18:58;;;;;;;0.35;0.35;;;;;;;;;;4992135;28;20022;-73
2021/12/04 16:21:24;;;;;;;0.60;0.60;;;;;;;;;;4987440;28;20485;-74
2021/12/04 16:23:52;;;;;;;0.60;0.60;;;;;;;;;;4994429;28;20076;-74
2021/12/04 16:26:19;;;;;;;0.50;0.50;;;;;;;;;;4997994;28;20359;-73
2021/12/04 16:31:28;;;;;;;0.60;0.60;;;;;;;;;;4982121;28;20030;-72
2021/12/04 16:35:03;;;;;;;0.60;0.60;;;;;;;;;;4989971;28;20595;-72
2021/12/04 16:37:03;;;;;;;0.50;0.50;;;;;;;;;;4989213;28;20580;-73
2021/12/04 16:39:28;;;;;;;0.70;0.70;;;;;;;;;;4977978;28;20043;-73
2021/12/04 16:41:55;;;;;;;1.27;0.85;;;;;;;;;;4991794;28;20026;-72
2021/12/04 16:44:20;;;;;;;1.08;1.08;;;;;;;;;;4991876;28;20025;-72
2021/12/04 16:46:47;;;;;;;1.20;1.10;;;;;;;;;;4988672;28;20027;-72
2021/12/04 16:49:12;;;;;;;3.92;1.13;;;;;;;;;;4983758;28;20499;-72
2021/12/04 16:57:22;;;;;;;5.15;4.60;;;;;;;;;;4990536;28;20034;-72
2021/12/04 16:59:51;;;;;;;0.80;0.80;;;;;;;;;;4988445;28;20024;-72
2021/12/04 17:02:17;;;;;;;0.90;0.90;;;;;;;;;;4986965;28;20203;-74
2021/12/04 17:04:43;;;;;;;0.80;0.80;;;;;;;;;;4994399;28;20049;-73
2021/12/04 17:07:08;;;;;;;1.13;0.70;;;;;;;;;;4967979;28;20496;-73
2021/12/04 17:09:33;;;;;;;1.33;1.23;;;;;;;;;;4985327;28;20022;-72
2021/12/04 17:11:59;;;;;;;0.60;0.60;;;;;;;;;;4982177;28;20047;-73
2021/12/04 17:14:25;;;;;;;1.08;1.00;;;;;;;;;;4985806;28;20037;-73
2021/12/04 17:16:52;;;;;;;1.15;0.80;;;;;;;;;;4991348;28;20022;-73
2021/12/04 17:19:17;;;;;;;0.63;0.63;;;;;;;;;;4993063;28;20045;-73
2021/12/04 17:21:44;;;;;;;0.70;0.70;;;;;;;;;;4992694;28;20026;-73
2021/12/04 17:24:10;;;;;;;0.60;0.60;;;;;;;;;;4982966;28;20034;-73
2021/12/04 17:26:35;;;;;;;0.70;0.70;;;;;;;;;;4987914;28;20041;-73
2021/12/04 17:29:01;;;;;;;0.60;0.60;;;;;;;;;;4958132;28;20026;-73
2021/12/04 17:31:27;;;;;;;0.50;0.50;;;;;;;;;;4990556;28;20042;-72
2021/12/04 17:33:56;;;;;;;1.20;0.80;;;;;;;;;;4974547;28;20030;-72
2021/12/04 17:36:22;;;;;;;0.60;0.60;;;;;;;;;;4972784;28;20084;-72
2021/12/04 17:38:48;;;;;;;0.98;0.80;;;;;;;;;;4978815;28;20033;-73
2021/12/04 17:41:18;;;;;;;0.65;0.60;;;;;;;;;;4981457;28;20103;-72
2021/12/04 17:43:43;;;;;;;0.77;0.77;;;;;;;;;;4987154;28;20501;-71
2021/12/04 17:46:10;;;;;;;0.70;0.70;;;;;;;;;;4986095;28;20073;-74
2021/12/04 17:48:36;;;;;;;1.00;0.60;;;;;;;;;;4987534;28;20489;-74
2021/12/04 17:51:02;;;;;;;0.57;0.57;;;;;;;;;;4985639;28;20026;-72
2021/12/04 17:53:29;;;;;;;0.65;0.65;;;;;;;;;;4988636;28;20026;-73
2021/12/04 17:55:54;;;;;;;0.60;0.60;;;;;;;;;;4989144;28;20112;-72
2021/12/04 17:58:19;;;;;;;0.80;0.80;;;;;;;;;;4987855;28;20533;-72
2021/12/04 18:00:48;;;;;;;0.80;0.80;;;;;;;;;;4986334;28;20053;-73
2021/12/04 18:03:15;;;;;;;1.00;1.00;;;;;;;;;;4989682;28;20030;-72
2021/12/04 18:05:41;;;;;;;1.17;1.17;;;;;;;;;;4978257;28;20370;-73
2021/12/04 18:08:09;;;;;;;1.40;1.30;;;;;;;;;;4985480;28;20113;-72
2021/12/04 18:10:35;;;;;;;0.70;0.70;;;;;;;;;;4987690;28;20053;-73
2021/12/04 18:13:03;;;;;;;0.80;0.77;;;;;;;;;;4983401;28;20034;-73